Time;durP1;ratioP1;P1;durP2;ratioP2;P2;SDS_P1;SDS_P2;PMS_P1;PMS_P2;Temp;Humidity;BMP_temperature;BMP_pressure;BME280_temperature;BME280_humidity;BME280_pressure;Samples;Min_cycle;Max_cycle;Signal;HPM_P1;HPM_P2
2023/05/31 00:00:04;;;;;;;9.82;2.88;;;;;;;23.95;33.74;98885.72;5021895;28;20041;-65
2023/05/31 00:02:32;;;;;;;6.53;2.67;;;;;;;23.80;33.67;98875.59;5038125;28;20049;-65
2023/05/31 00:04:57;;;;;;;9.93;2.80;;;;;;;23.72;34.13;98877.97;5036534;28;20048;-66
2023/05/31 00:07:23;;;;;;;10.00;3.05;;;;;;;23.68;33.76;98866.03;5052216;28;20336;-65
2023/05/31 00:09:49;;;;;;;5.57;2.78;;;;;;;23.60;34.53;98877.34;5052845;28;20447;-66
2023/05/31 00:12:15;;;;;;;16.05;2.95;;;;;;;23.58;34.45;98872.19;5019964;28;20049;-65
2023/05/31 00:14:41;;;;;;;8.65;2.60;;;;;;;23.57;34.17;98872.47;5019221;28;20064;-65
2023/05/31 00:17:06;;;;;;;5.90;2.70;;;;;;;23.56;34.54;98877.06;5036078;28;20052;-65
2023/05/31 00:19:33;;;;;;;5.53;2.88;;;;;;;23.54;34.75;98883.81;5020045;28;20483;-65
2023/05/31 00:21:59;;;;;;;6.07;2.97;;;;;;;23.51;34.50;98892.47;5019711;28;20044;-65
2023/05/31 00:24:25;;;;;;;6.10;2.55;;;;;;;23.47;34.85;98896.75;5019635;28;20483;-65
2023/05/31 00:26:51;;;;;;;9.50;2.85;;;;;;;23.45;35.04;98896.22;5035615;28;20048;-66
2023/05/31 00:29:16;;;;;;;9.15;2.63;;;;;;;23.48;34.75;98888.38;5053057;28;20427;-64
2023/05/31 00:31:42;;;;;;;4.07;2.70;;;;;;;23.48;34.54;98880.22;5035240;28;20036;-64
2023/05/31 00:34:10;;;;;;;7.43;2.92;;;;;;;23.56;34.64;98887.06;5035344;28;20098;-64
2023/05/31 00:36:36;;;;;;;6.22;3.08;;;;;;;23.58;34.54;98893.06;5019084;28;20052;-65
2023/05/31 00:39:03;;;;;;;8.90;3.17;;;;;;;23.57;34.52;98894.94;5035480;28;20048;-65
2023/05/31 00:41:29;;;;;;;5.03;2.88;;;;;;;23.57;34.96;98899.56;5052124;28;20060;-65
2023/05/31 00:43:55;;;;;;;7.80;2.90;;;;;;;23.59;34.58;98905.56;5035717;28;20395;-65
2023/05/31 00:46:32;;;;;;;5.25;2.80;;;;;;;23.93;34.42;98904.16;5035936;28;20052;-66
2023/05/31 00:48:59;;;;;;;5.25;2.95;;;;;;;23.77;34.35;98891.59;5052843;28;20047;-65
2023/05/31 00:51:26;;;;;;;3.60;2.58;;;;;;;23.86;34.31;98906.28;5035066;28;20566;-66
2023/05/31 00:53:53;;;;;;;4.72;2.65;;;;;;;23.77;34.25;98899.72;5035315;28;20036;-65
2023/05/31 00:56:19;;;;;;;4.72;3.00;;;;;;;23.78;34.20;98917.63;5018799;28;20071;-65
2023/05/31 00:58:47;;;;;;;4.93;2.80;;;;;;;23.79;34.52;98911.09;5034958;28;20048;-66
2023/05/31 01:01:14;;;;;;;6.00;2.75;;;;;;;23.98;34.16;98909.66;4997827;28;20284;-65
2023/05/31 01:03:42;;;;;;;7.13;2.80;;;;;;;24.13;34.22;98915.97;5014061;28;20057;-65
2023/05/31 01:06:09;;;;;;;10.55;3.25;;;;;;;23.82;34.18;98903.28;5030192;28;20049;-65
2023/05/31 01:08:36;;;;;;;7.65;3.42;;;;;;;23.95;34.04;98900.13;4997161;28;20092;-65
2023/05/31 01:11:30;;;;;;;8.40;3.20;;;;;;;24.07;34.44;98894.50;4981414;28;20049;-65
2023/05/31 01:13:57;;;;;;;5.35;3.10;;;;;;;23.98;34.18;98902.34;5006171;28;20045;-65
2023/05/31 01:16:38;;;;;;;12.05;2.90;;;;;;;24.19;34.27;98906.78;5013581;28;20407;-67
2023/05/31 01:19:05;;;;;;;;;;;;;;;24.31;33.75;98903.88;5013764;28;20141;-65
2023/05/31 01:21:52;;;;;;;7.22;2.80;;;;;;;24.09;34.32;98895.06;5013215;28;19921;-65
2023/05/31 01:24:21;;;;;;;7.50;2.80;;;;;;;23.94;34.71;98895.75;5013672;28;20049;-65
2023/05/31 01:26:50;;;;;;;4.15;2.78;;;;;;;23.85;34.79;98891.09;5013084;28;20114;-65
2023/05/31 01:29:22;;;;;;;7.47;2.78;;;;;;;23.91;34.67;98893.56;5030173;28;20410;-65
2023/05/31 01:31:51;;;;;;;7.05;3.20;;;;;;;23.78;35.00;98883.19;4975655;28;20061;-65
2023/05/31 01:34:17;;;;;;;5.55;2.97;;;;;;;23.58;34.87;98882.22;5017162;28;20049;-64
2023/05/31 01:36:42;;;;;;;9.10;2.85;;;;;;;23.57;34.84;98894.13;5034207;28;20041;-65
2023/05/31 01:39:11;;;;;;;6.25;2.70;;;;;;;23.64;35.12;98884.72;5053410;28;20571;-67
2023/05/31 01:41:39;;;;;;;5.65;2.63;;;;;;;23.77;34.88;98884.25;5019986;28;20099;-64
2023/05/31 01:44:06;;;;;;;6.85;2.40;;;;;;;23.59;35.21;98883.88;5017917;28;20045;-65
2023/05/31 01:46:33;;;;;;;5.47;2.80;;;;;;;23.53;35.32;98888.41;5033991;28;20467;-65
2023/05/31 01:49:00;;;;;;;5.82;2.67;;;;;;;23.61;35.05;98884.41;5034068;28;20048;-65
2023/05/31 01:51:28;;;;;;;10.85;2.60;;;;;;;23.57;35.36;98891.44;5050292;28;20053;-65
2023/05/31 01:53:53;;;;;;;7.57;2.75;;;;;;;23.39;35.27;98889.91;5034491;28;20036;-65
2023/05/31 01:56:20;;;;;;;4.97;2.40;;;;;;;23.54;35.14;98883.81;5017645;28;20047;-65
2023/05/31 01:58:49;;;;;;;5.65;2.40;;;;;;;23.57;35.50;98875.16;5033836;28;20439;-65
2023/05/31 02:01:17;;;;;;;3.70;2.40;;;;;;;23.60;35.23;98893.63;5033915;28;20073;-66
2023/05/31 02:03:43;;;;;;;7.28;2.80;;;;;;;23.42;35.34;98888.59;5050242;28;20043;-65
2023/05/31 02:06:13;;;;;;;6.90;2.90;;;;;;;23.33;35.55;98890.13;5050629;28;20438;-65
2023/05/31 02:08:40;;;;;;;7.22;2.80;;;;;;;23.44;35.47;98908.13;5017727;28;20040;-65
2023/05/31 03:21:01;;;;;;;6.85;2.90;;;;;;;23.85;37.58;98939.91;5109133;27;20384;-67
2023/05/31 03:23:27;;;;;;;9.02;3.38;;;;;;;23.88;37.13;98950.25;5091369;28;20079;-68
2023/05/31 03:25:53;;;;;;;7.32;2.63;;;;;;;24.03;38.00;98972.09;5108347;28;20059;-67
2023/05/31 03:28:20;;;;;;;10.60;2.85;;;;;;;23.91;38.75;98974.13;5058198;28;20040;-67
2023/05/31 03:30:46;;;;;;;6.10;2.90;;;;;;;23.62;39.85;98970.91;5041173;28;20039;-67
2023/05/31 03:33:13;;;;;;;7.13;2.92;;;;;;;23.81;40.68;98974.03;5057737;28;20040;-65
2023/05/31 03:35:40;;;;;;;12.82;3.40;;;;;;;23.66;41.48;98968.50;5041308;28;20043;-65
2023/05/31 03:38:14;;;;;;;6.55;3.03;;;;;;;23.86;41.20;98961.34;5090726;28;20040;-65
2023/05/31 03:40:45;;;;;;;6.47;3.30;;;;;;;24.06;40.30;98974.28;5055233;28;20486;-64
2023/05/31 03:43:11;;;;;;;5.07;2.50;;;;;;;24.08;39.23;98963.97;5023797;28;20124;-65
2023/05/31 03:45:38;;;;;;;7.50;2.88;;;;;;;24.13;39.23;98966.72;5040231;28;20045;-66
2023/05/31 03:48:04;;;;;;;5.05;3.10;;;;;;;24.18;39.16;98964.03;5021978;28;20102;-65
2023/05/31 03:50:31;;;;;;;4.35;2.90;;;;;;;24.24;38.42;98961.09;4991086;28;20055;-66
2023/05/31 03:52:57;;;;;;;7.53;3.42;;;;;;;24.24;37.95;98966.53;5039536;28;20388;-65
2023/05/31 03:55:25;;;;;;;3.22;2.60;;;;;;;24.30;38.01;98972.78;5038226;28;20469;-67
2023/05/31 03:57:51;;;;;;;4.20;2.83;;;;;;;24.30;37.81;98967.38;5039857;28;20063;-66
2023/05/31 04:00:19;;;;;;;8.90;3.30;;;;;;;24.45;37.32;98970.16;5037067;28;20519;-66
2023/05/31 04:02:50;;;;;;;8.45;3.33;;;;;;;24.49;37.11;98971.28;5002629;28;20037;-66
2023/05/31 04:05:16;;;;;;;7.57;3.22;;;;;;;24.52;37.20;98963.44;5041719;28;20073;-66
2023/05/31 04:07:42;;;;;;;5.78;3.22;;;;;;;24.45;36.29;98959.28;5009513;28;20091;-65
2023/05/31 04:10:09;;;;;;;7.38;3.30;;;;;;;24.53;36.24;98958.81;5027491;28;20076;-66
2023/05/31 04:12:35;;;;;;;5.80;3.22;;;;;;;24.63;36.92;98969.72;5080215;28;20060;-66
2023/05/31 04:15:01;;;;;;;9.13;3.33;;;;;;;24.78;36.66;98972.53;5084806;28;20086;-66
2023/05/31 04:17:31;;;;;;;11.00;3.38;;;;;;;24.85;36.82;98975.81;5053952;28;20048;-66
2023/05/31 04:19:58;;;;;;;5.85;3.63;;;;;;;24.97;36.64;98968.25;5049177;28;20444;-65
2023/05/31 04:22:24;;;;;;;5.70;3.33;;;;;;;25.02;36.10;98968.25;5056874;28;20048;-66
2023/05/31 04:24:50;;;;;;;7.88;3.70;;;;;;;25.15;35.43;98978.66;5073388;28;20535;-65
2023/05/31 04:27:25;;;;;;;8.05;3.75;;;;;;;25.48;35.31;98975.47;5041194;28;20079;-66
2023/05/31 04:29:53;;;;;;;11.80;3.70;;;;;;;25.77;34.85;98979.28;5024078;28;20040;-65
2023/05/31 04:32:21;;;;;;;3.85;3.08;;;;;;;25.97;34.46;98981.22;5073419;28;20492;-66
2023/05/31 04:34:52;;;;;;;9.25;3.08;;;;;;;26.25;34.16;98976.03;5056564;28;20040;-65
2023/05/31 04:37:18;;;;;;;;;;;;;;;26.61;32.80;98984.94;5074727;28;20052;-66
2023/05/31 04:39:45;;;;;;;7.10;2.35;;;;;;;26.12;33.95;98973.06;5056607;28;19913;-65
2023/05/31 04:42:12;;;;;;;3.38;2.30;;;;;;;25.83;33.26;98977.41;5056573;28;20060;-65
2023/05/31 04:44:41;;;;;;;5.07;2.40;;;;;;;25.89;34.18;98982.56;5056712;28;20475;-65
2023/05/31 04:47:08;;;;;;;7.40;2.70;;;;;;;25.87;33.74;98975.75;5074200;28;20047;-66
2023/05/31 04:49:34;;;;;;;6.00;2.15;;;;;;;25.72;33.64;98973.88;5056372;28;20054;-66
2023/05/31 04:52:00;;;;;;;9.00;2.65;;;;;;;25.56;34.02;98974.94;5039587;28;20458;-65
2023/05/31 04:54:26;;;;;;;6.68;2.40;;;;;;;25.42;33.99;98992.88;5056114;28;20058;-67
2023/05/31 04:56:52;;;;;;;2.80;2.10;;;;;;;25.13;34.25;98988.13;5056249;28;20399;-66
2023/05/31 04:59:17;;;;;;;3.92;2.08;;;;;;;24.74;35.35;98991.25;5023223;28;20045;-65
2023/05/31 05:01:45;;;;;;;10.85;2.63;;;;;;;24.53;36.06;98988.66;5056150;28;20417;-65
2023/05/31 05:04:14;;;;;;;5.30;2.50;;;;;;;24.35;36.40;98992.66;5072858;28;20041;-65
2023/05/31 05:06:41;;;;;;;3.78;2.28;;;;;;;24.04;37.45;98990.81;5056467;28;20105;-65
2023/05/31 05:09:09;;;;;;;5.72;2.45;;;;;;;23.77;37.75;98994.63;5056009;28;20051;-66
2023/05/31 05:11:36;;;;;;;3.45;2.30;;;;;;;23.61;38.67;98998.25;5056085;28;20048;-65
2023/05/31 05:14:03;;;;;;;6.70;2.60;;;;;;;23.38;39.33;98996.69;5039266;28;20053;-66
2023/05/31 05:16:29;;;;;;;7.32;2.50;;;;;;;23.15;39.88;98996.97;5055813;28;20394;-66
2023/05/31 05:18:56;;;;;;;3.22;2.42;;;;;;;22.89;40.62;98993.16;5055832;28;20052;-65
2023/05/31 05:21:24;;;;;;;4.82;2.33;;;;;;;22.81;40.83;99000.88;5072448;28;20041;-66
2023/05/31 05:23:50;;;;;;;4.15;2.40;;;;;;;22.55;41.88;98982.69;5055886;28;20067;-66
2023/05/31 05:26:17;;;;;;;4.13;2.47;;;;;;;22.65;41.88;98982.84;5022596;28;20044;-65
2023/05/31 05:28:42;;;;;;;3.92;2.42;;;;;;;22.57;42.37;98994.88;5039077;28;20105;-66
2023/05/31 05:31:08;;;;;;;3.50;2.35;;;;;;;22.37;43.15;98983.75;5011466;28;20057;-66
2023/05/31 05:33:40;;;;;;;8.35;2.70;;;;;;;22.31;43.88;98984.75;4979265;28;20064;-66
2023/05/31 05:36:06;;;;;;;4.95;2.42;;;;;;;22.28;44.27;98981.75;5011287;28;20054;-65
2023/05/31 05:38:35;;;;;;;3.40;2.75;;;;;;;22.23;44.19;98996.03;4978801;28;20175;-66
2023/05/31 05:41:02;;;;;;;5.50;2.78;;;;;;;22.40;44.39;98994.06;4962839;28;20114;-66
2023/05/31 05:43:29;;;;;;;5.88;2.88;;;;;;;22.25;44.19;98995.78;4995369;28;20179;-66
2023/05/31 05:46:04;;;;;;;8.60;2.22;;;;;;;22.22;45.28;98994.34;4978205;28;20049;-66
2023/05/31 05:48:30;;;;;;;3.83;2.63;;;;;;;22.09;45.99;98975.78;4978916;28;20045;-67
2023/05/31 05:50:56;;;;;;;3.58;2.50;;;;;;;22.26;46.81;98959.53;4994801;28;20053;-66
2023/05/31 05:53:21;;;;;;;5.82;2.97;;;;;;;22.24;47.43;98948.94;4978699;28;20448;-67
2023/05/31 05:55:54;;;;;;;7.25;3.33;;;;;;;22.62;47.51;98957.06;4994976;28;20066;-65
2023/05/31 05:58:24;;;;;;;4.95;3.40;;;;;;;22.36;47.99;98956.94;4979287;28;20061;-66
2023/05/31 06:01:08;;;;;;;5.32;3.50;;;;;;;22.46;47.54;98946.28;5000741;28;20104;-66
2023/05/31 06:03:37;;;;;;;4.30;2.67;;;;;;;22.40;45.69;98941.88;5038196;28;20416;-66
2023/05/31 06:06:06;;;;;;;5.80;2.90;;;;;;;22.45;46.19;98945.44;5055058;28;20052;-68
2023/05/31 06:08:33;;;;;;;6.05;2.75;;;;;;;22.43;45.36;98938.66;5055185;28;20055;-67
2023/05/31 06:10:59;;;;;;;5.70;2.70;;;;;;;22.61;45.50;98944.59;5054949;28;20040;-66
2023/05/31 06:13:26;;;;;;;5.00;2.70;;;;;;;22.51;45.25;98944.47;5054723;28;20054;-67
2023/05/31 06:15:53;;;;;;;4.75;3.10;;;;;;;22.65;44.90;98940.31;5021867;28;20060;-66
2023/05/31 06:18:19;;;;;;;7.03;3.08;;;;;;;22.57;44.47;98940.75;5071525;28;20044;-65
2023/05/31 06:20:45;;;;;;;7.70;2.67;;;;;;;22.55;44.02;98926.69;5054946;28;20059;-66
2023/05/31 06:23:11;;;;;;;3.75;2.95;;;;;;;22.64;43.62;98929.75;5071329;28;20161;-66
2023/05/31 06:25:37;;;;;;;4.15;2.30;;;;;;;22.66;43.44;98923.03;5037961;28;20051;-68
2023/05/31 06:28:03;;;;;;;3.53;2.00;;;;;;;22.59;42.87;98933.22;5072211;28;20042;-67
2023/05/31 06:30:32;;;;;;;4.40;2.05;;;;;;;22.60;42.65;98944.88;5022093;28;20510;-66
2023/05/31 06:32:58;;;;;;;5.45;2.10;;;;;;;22.51;42.27;98927.44;5054541;28;20041;-66
2023/05/31 06:35:24;;;;;;;7.15;4.85;;;;;;;22.61;42.57;98924.84;5038230;28;20040;-66
2023/05/31 06:37:53;;;;;;;3.97;2.38;;;;;;;22.91;42.53;98923.28;5037859;28;20490;-68
2023/05/31 06:40:20;;;;;;;2.88;1.95;;;;;;;22.68;42.39;98936.31;5037815;28;20044;-65
2023/05/31 06:42:46;;;;;;;3.20;1.95;;;;;;;22.64;42.52;98932.44;5037691;28;20048;-65
2023/05/31 06:45:41;;;;;;;3.17;2.10;;;;;;;22.79;42.54;98911.78;5049056;28;20135;-65
2023/05/31 06:48:13;;;;;;;3.00;2.03;;;;;;;22.85;42.10;98885.56;5054343;28;20044;-66
2023/05/31 06:51:07;;;;;;;4.03;2.50;;;;;;;23.00;42.47;98878.41;5040139;28;20049;-67
2023/05/31 06:53:51;;;;;;;4.85;2.22;;;;;;;22.92;42.53;98888.91;5056321;28;20502;-65
2023/05/31 06:56:21;;;;;;;7.00;2.50;;;;;;;23.14;43.33;98903.22;5070444;28;20040;-66
2023/05/31 06:58:48;;;;;;;3.42;2.22;;;;;;;23.19;42.15;98905.97;5053858;28;20040;-65
2023/05/31 07:01:14;;;;;;;5.25;2.58;;;;;;;23.43;41.82;98912.75;5037423;28;20058;-66
2023/05/31 07:03:40;;;;;;;6.50;2.47;;;;;;;23.74;41.35;98905.66;5053303;28;20438;-67
2023/05/31 07:06:07;;;;;;;5.47;2.17;;;;;;;24.16;39.75;98898.34;5070431;28;20047;-67
2023/05/31 07:08:33;;;;;;;2.72;2.17;;;;;;;24.42;38.99;98906.38;5020636;28;20072;-66
2023/05/31 07:11:26;;;;;;;5.05;2.40;;;;;;;24.92;37.96;98903.03;5066890;28;20357;-66
2023/05/31 07:13:52;;;;;;;3.90;2.55;;;;;;;25.16;36.98;98908.78;5070246;28;20055;-66
2023/05/31 07:16:18;;;;;;;3.45;2.53;;;;;;;25.43;36.56;98909.41;5053990;28;20045;-67
2023/05/31 07:18:46;;;;;;;3.17;2.35;;;;;;;25.73;35.70;98912.09;5066247;28;20080;-67
2023/05/31 07:21:12;;;;;;;8.80;2.40;;;;;;;26.08;35.25;98915.63;5050425;28;20045;-66
2023/05/31 07:23:38;;;;;;;8.07;2.40;;;;;;;26.57;34.64;98912.22;5050112;28;20388;-66
2023/05/31 07:26:05;;;;;;;5.53;2.50;;;;;;;27.26;33.36;98911.06;5050977;28;20041;-67
2023/05/31 07:28:32;;;;;;;5.22;3.00;;;;;;;28.39;31.90;98916.88;5033280;28;20041;-66
2023/05/31 07:30:58;;;;;;;6.50;2.88;;;;;;;29.60;30.05;98910.56;5050030;28;20037;-66
2023/05/31 07:33:24;;;;;;;6.00;2.88;;;;;;;30.52;28.23;98909.47;5050084;28;20041;-66
2023/05/31 07:35:50;;;;;;;3.60;2.88;;;;;;;30.59;27.92;98911.78;5033380;28;20041;-65
2023/05/31 07:38:15;;;;;;;6.53;3.20;;;;;;;30.67;27.28;98917.41;5051195;28;20048;-68
2023/05/31 07:40:41;;;;;;;5.75;2.58;;;;;;;30.59;26.84;98911.78;5050799;28;20072;-66
2023/05/31 07:43:07;;;;;;;4.45;2.80;;;;;;;30.07;27.02;98913.06;5049779;28;20122;-67
2023/05/31 07:45:33;;;;;;;6.47;3.00;;;;;;;29.44;28.10;98901.81;5066478;28;20183;-66
2023/05/31 07:47:59;;;;;;;7.50;2.90;;;;;;;29.05;28.76;98912.25;5049863;28;20033;-66
2023/05/31 07:50:25;;;;;;;7.45;3.38;;;;;;;29.51;28.71;98918.66;5049656;28;20076;-66
2023/05/31 07:52:52;;;;;;;2.63;2.33;;;;;;;31.11;25.92;98923.03;5033443;28;20041;-69
2023/05/31 07:55:18;;;;;;;8.20;2.47;;;;;;;31.45;25.02;98924.47;5050773;28;20052;-67
2023/05/31 07:57:44;;;;;;;4.15;2.50;;;;;;;32.74;23.20;98921.38;5070331;28;20173;-67
2023/05/31 08:00:13;;;;;;;3.78;2.13;;;;;;;32.88;22.27;98917.38;5037176;28;20060;-68
2023/05/31 08:02:41;;;;;;;4.15;2.38;;;;;;;32.23;22.79;98910.97;5070261;28;20052;-68
2023/05/31 08:05:07;;;;;;;4.10;1.90;;;;;;;31.21;23.79;98907.47;5053697;28;20515;-68
2023/05/31 08:07:33;;;;;;;7.47;2.60;;;;;;;30.76;24.27;98904.63;5053566;28;20056;-67
2023/05/31 08:10:07;;;;;;;6.93;2.50;;;;;;;30.22;25.24;98892.81;5039072;28;20052;-67
2023/05/31 08:12:33;;;;;;;4.95;2.58;;;;;;;29.35;25.98;98898.09;5070076;28;20059;-67
2023/05/31 08:14:59;;;;;;;4.60;2.80;;;;;;;28.68;27.39;98884.84;5053203;28;20087;-67
2023/05/31 08:17:26;;;;;;;8.30;2.90;;;;;;;28.30;28.71;98883.09;5053917;28;20384;-68
2023/05/31 08:19:52;;;;;;;9.73;3.33;;;;;;;27.82;28.99;98887.69;5052776;28;20155;-66
2023/05/31 08:22:18;;;;;;;6.85;2.35;;;;;;;27.47;29.53;98889.91;5069940;28;20103;-67
2023/05/31 08:24:45;;;;;;;7.10;2.55;;;;;;;27.16;30.48;98891.19;5052996;28;20358;-68
2023/05/31 08:27:10;;;;;;;3.22;2.33;;;;;;;26.85;30.67;98885.13;5036815;28;20577;-67
2023/05/31 08:29:36;;;;;;;9.15;2.70;;;;;;;26.70;30.84;98882.50;5054017;28;20468;-68
2023/05/31 08:32:02;;;;;;;4.03;2.40;;;;;;;26.57;31.15;98888.50;5069893;28;20040;-67
2023/05/31 08:34:28;;;;;;;6.63;2.80;;;;;;;26.61;31.16;98886.88;5069742;28;20045;-66
2023/05/31 08:36:55;;;;;;;7.57;2.63;;;;;;;26.59;31.12;98893.66;5070009;28;20488;-66
2023/05/31 08:39:21;;;;;;;4.07;2.33;;;;;;;26.68;30.82;98892.03;5069979;28;20511;-66
2023/05/31 08:41:56;;;;;;;5.47;2.65;;;;;;;26.48;31.38;98890.19;5054408;28;20060;-67
2023/05/31 08:44:22;;;;;;;7.55;2.33;;;;;;;26.46;31.41;98885.00;5053061;28;20114;-66
2023/05/31 08:46:50;;;;;;;3.20;2.10;;;;;;;26.26;31.44;98884.28;5019522;28;20584;-65
2023/05/31 08:49:18;;;;;;;6.70;2.20;;;;;;;26.27;31.91;98881.28;4985184;28;20057;-65
2023/05/31 08:51:48;;;;;;;5.50;2.40;;;;;;;26.40;31.83;98883.41;5000167;28;20057;-66
2023/05/31 08:54:16;;;;;;;6.70;1.83;;;;;;;26.40;31.31;98879.88;5002639;28;20044;-65
2023/05/31 08:56:43;;;;;;;6.50;1.95;;;;;;;26.43;30.96;98882.06;4984763;28;20519;-66
2023/05/31 08:59:11;;;;;;;6.07;2.13;;;;;;;26.41;30.94;98879.59;5002528;28;20049;-65
2023/05/31 09:01:41;;;;;;;4.22;1.77;;;;;;;26.45;31.16;98883.38;5035121;28;20053;-65
2023/05/31 09:04:07;;;;;;;5.50;2.17;;;;;;;26.06;31.44;98879.69;5018623;28;20037;-65
2023/05/31 09:06:36;;;;;;;5.03;2.13;;;;;;;26.06;32.13;98879.69;5018453;28;20471;-65
2023/05/31 09:09:02;;;;;;;8.30;2.40;;;;;;;25.70;32.54;98886.28;4986209;28;20442;-65
2023/05/31 09:11:28;;;;;;;6.32;2.33;;;;;;;25.46;32.91;98896.09;4985979;28;20048;-66
2023/05/31 09:13:54;;;;;;;11.38;3.90;;;;;;;25.40;33.88;98897.16;4986142;28;20048;-65
2023/05/31 09:16:23;;;;;;;10.30;3.22;;;;;;;25.44;41.87;98895.53;4986252;28;20131;-66
2023/05/31 09:18:59;;;;;;;77.25;4.82;;;;;;;24.36;55.62;98896.56;5019359;28;20136;-66
2023/05/31 09:21:25;;;;;;;8.57;3.88;;;;;;;23.29;55.16;98906.91;5019415;28;20131;-65
2023/05/31 09:23:59;;;;;;;9.57;4.20;;;;;;;23.19;53.90;98908.69;5003184;28;20144;-65
2023/05/31 09:26:28;;;;;;;14.70;3.72;;;;;;;22.85;55.16;98899.94;5019565;28;20056;-65
2023/05/31 09:28:55;;;;;;;10.55;3.55;;;;;;;22.31;72.25;98900.06;5036261;28;20041;-66
2023/05/31 09:31:22;;;;;;;6.38;3.90;;;;;;;22.04;68.85;98909.97;5035743;28;20492;-65
2023/05/31 09:33:51;;;;;;;28.73;4.38;;;;;;;22.04;66.32;98901.84;5019673;28;20110;-65
2023/05/31 09:36:27;;;;;;;9.90;4.57;;;;;;;22.05;64.02;98911.63;5019811;28;20098;-66
2023/05/31 09:39:01;;;;;;;7.28;4.70;;;;;;;21.85;60.96;98914.84;5019585;28;20079;-65
2023/05/31 09:41:28;;;;;;;8.70;5.07;;;;;;;21.58;61.52;98916.56;5052428;28;20047;-66
2023/05/31 09:43:53;;;;;;;8.80;5.13;;;;;;;21.58;61.73;98921.94;5035975;28;20488;-65
2023/05/31 09:46:21;;;;;;;8.23;4.30;;;;;;;21.69;59.30;98926.47;5019065;28;20056;-66
2023/05/31 09:49:00;;;;;;;5.65;4.07;;;;;;;21.82;58.41;98926.13;5035547;28;20040;-65
2023/05/31 09:51:27;;;;;;;8.30;4.50;;;;;;;21.59;58.53;98932.50;5052279;28;20057;-66
2023/05/31 09:53:55;;;;;;;7.28;4.53;;;;;;;21.58;57.33;98940.88;5035556;28;20041;-66
2023/05/31 09:56:27;;;;;;;6.47;3.80;;;;;;;21.67;56.05;98940.22;5036156;28;20044;-66
2023/05/31 09:58:57;;;;;;;8.50;3.78;;;;;;;21.69;55.23;98939.97;5068956;28;20037;-66
2023/05/31 10:01:23;;;;;;;12.95;4.03;;;;;;;21.05;53.40;98952.09;5019205;28;20045;-66
2023/05/31 10:03:50;;;;;;;11.48;6.63;;;;;;;20.89;54.69;98952.84;5035175;28;20049;-66
2023/05/31 10:06:18;;;;;;;8.35;4.35;;;;;;;20.84;55.02;98958.13;4985783;28;20048;-66
2023/05/31 10:08:46;;;;;;;6.43;4.15;;;;;;;20.65;53.69;98961.25;5051719;28;20579;-66
2023/05/31 10:11:26;;;;;;;3.85;3.40;;;;;;;20.63;53.13;98957.97;5035259;28;20071;-66
2023/05/31 10:13:52;;;;;;;;;;;;;;;20.77;53.52;98970.13;5019444;28;20429;-66
2023/05/31 10:16:20;;;;;;;6.47;3.47;;;;;;;20.42;53.77;98977.50;5051878;28;19979;-65
2023/05/31 10:18:46;;;;;;;9.05;3.30;;;;;;;20.31;53.28;98981.00;5050920;28;20114;-66
2023/05/31 10:21:22;;;;;;;3.30;3.00;;;;;;;20.29;53.57;99000.13;5034550;28;20041;-66
2023/05/31 10:23:57;;;;;;;4.07;3.10;;;;;;;20.30;52.61;98990.97;5052387;28;20041;-66
2023/05/31 10:26:29;;;;;;;5.65;2.83;;;;;;;20.13;53.17;98990.03;5051770;28;20049;-66
2023/05/31 10:29:06;;;;;;;4.75;3.00;;;;;;;20.21;54.12;98986.16;5018790;28;20060;-65
2023/05/31 10:31:43;;;;;;;3.67;3.00;;;;;;;20.10;53.48;98985.91;5034950;28;20037;-66
2023/05/31 10:34:12;;;;;;;5.10;3.20;;;;;;;20.02;54.10;98977.34;5002316;28;20049;-66
2023/05/31 10:36:38;;;;;;;7.53;4.13;;;;;;;19.78;53.57;98981.91;5051216;28;20044;-66
2023/05/31 10:39:09;;;;;;;4.38;3.20;;;;;;;19.97;53.04;98991.53;5018397;28;20049;-66
2023/05/31 10:41:41;;;;;;;4.10;2.50;;;;;;;19.78;53.80;98992.69;5051365;28;20377;-66
2023/05/31 10:44:16;;;;;;;3.30;2.58;;;;;;;19.90;53.25;99003.47;5051674;28;20037;-66
2023/05/31 10:46:44;;;;;;;4.30;2.40;;;;;;;19.90;52.81;98995.38;5034728;28;20041;-66
2023/05/31 10:49:11;;;;;;;8.38;2.85;;;;;;;19.86;52.77;98995.06;5034598;28;20045;-66
2023/05/31 10:51:45;;;;;;;7.55;2.83;;;;;;;20.39;53.58;99002.25;5034508;28;20483;-66
2023/05/31 10:54:21;;;;;;;4.03;2.85;;;;;;;20.76;53.82;99006.25;5034936;28;20130;-66
2023/05/31 10:56:57;;;;;;;4.63;3.00;;;;;;;21.07;52.19;99003.16;5018141;28;20048;-66
2023/05/31 10:59:25;;;;;;;6.15;3.00;;;;;;;21.06;52.88;99010.44;5034544;28;20041;-66
2023/05/31 11:01:51;;;;;;;3.05;2.30;;;;;;;21.13;49.13;99007.56;5034568;28;20534;-66
2023/05/31 11:04:23;;;;;;;4.05;2.90;;;;;;;21.51;48.85;99013.19;5051016;28;20052;-66
2023/05/31 11:06:54;;;;;;;4.55;2.90;;;;;;;21.79;48.52;99012.34;5051233;28;20797;-66
2023/05/31 11:09:20;;;;;;;7.55;2.90;;;;;;;21.70;47.04;99018.13;5013401;28;20049;-66
2023/05/31 11:11:47;;;;;;;5.00;2.58;;;;;;;21.87;45.74;99020.03;4980902;28;20149;-66
2023/05/31 11:14:16;;;;;;;4.57;2.58;;;;;;;22.23;46.43;99017.66;4997117;28;20049;-65
2023/05/31 11:17:03;;;;;;;4.22;2.40;;;;;;;22.34;44.89;99013.22;4997057;28;20041;-66
2023/05/31 11:19:32;;;;;;;6.05;2.10;;;;;;;22.15;43.07;99018.06;5013329;28;20069;-65
2023/05/31 11:22:08;;;;;;;4.55;2.13;;;;;;;22.67;42.85;99024.81;4980822;28;20045;-65
2023/05/31 11:24:37;;;;;;;3.78;2.10;;;;;;;22.82;42.22;99022.28;4996900;28;20045;-66
2023/05/31 11:27:11;;;;;;;2.70;2.00;;;;;;;22.96;41.37;99031.69;4980945;28;20053;-65
2023/05/31 11:29:48;;;;;;;2.78;1.92;;;;;;;23.20;41.07;99029.53;5013294;28;20535;-65
2023/05/31 11:32:15;;;;;;;3.95;2.40;;;;;;;22.93;40.53;99036.78;5000661;28;20056;-66
2023/05/31 11:34:58;;;;;;;5.72;2.20;;;;;;;23.09;41.00;99031.28;5017236;28;20443;-65
2023/05/31 11:37:28;;;;;;;6.05;3.08;;;;;;;22.86;40.51;99033.44;5000692;28;20064;-66
2023/05/31 11:39:55;;;;;;;3.90;2.55;;;;;;;22.51;40.50;99022.16;4984563;28;20060;-65
2023/05/31 11:42:22;;;;;;;4.38;2.95;;;;;;;22.39;40.84;99030.31;4984893;28;20536;-65
2023/05/31 11:44:50;;;;;;;5.70;2.90;;;;;;;22.41;41.08;99030.06;5001326;28;20041;-66
2023/05/31 11:47:45;;;;;;;4.70;2.45;;;;;;;22.35;39.95;99036.50;4999707;28;20045;-65
2023/05/31 11:50:13;;;;;;;7.68;2.72;;;;;;;21.89;40.53;99034.13;5052281;28;20140;-65
2023/05/31 11:52:44;;;;;;;3.63;2.30;;;;;;;21.83;39.93;99030.53;5037690;28;20052;-66
2023/05/31 11:55:17;;;;;;;6.45;2.60;;;;;;;21.89;39.96;99023.31;5054292;28;20508;-65
2023/05/31 11:57:51;;;;;;;8.98;2.40;;;;;;;21.59;39.97;99037.91;5037708;28;20045;-66
2023/05/31 12:00:27;;;;;;;4.10;2.20;;;;;;;21.93;39.85;99041.50;4993706;28;20371;-65
2023/05/31 12:03:04;;;;;;;7.13;2.40;;;;;;;21.85;39.95;99041.09;4977760;28;20121;-66
2023/05/31 12:05:31;;;;;;;4.72;2.10;;;;;;;21.76;38.74;99048.78;4977115;28;20062;-66
2023/05/31 12:07:57;;;;;;;8.32;2.40;;;;;;;21.69;39.39;99050.78;4977446;28;20042;-65
2023/05/31 12:10:27;;;;;;;7.00;2.33;;;;;;;21.93;38.51;99036.09;4993591;28;20113;-65
2023/05/31 12:12:54;;;;;;;3.97;2.15;;;;;;;21.77;38.54;99036.09;5009776;28;20073;-66
2023/05/31 12:15:22;;;;;;;3.17;2.10;;;;;;;21.64;38.41;99051.53;4993393;28;20057;-66
2023/05/31 12:17:48;;;;;;;6.03;2.38;;;;;;;21.58;38.32;99049.81;4977323;28;20485;-66
2023/05/31 12:20:14;;;;;;;5.18;2.20;;;;;;;21.61;38.11;99046.59;4977075;28;20054;-66
2023/05/31 12:22:40;;;;;;;5.18;2.20;;;;;;;21.62;38.58;99034.72;4977023;28;20057;-66
2023/05/31 12:25:07;;;;;;;4.68;2.35;;;;;;;21.66;38.41;99037.78;4977131;28;20049;-66
2023/05/31 12:27:35;;;;;;;3.78;1.95;;;;;;;21.61;38.40;99034.97;4993239;28;20558;-66
2023/05/31 12:30:02;;;;;;;5.07;1.80;;;;;;;21.70;38.32;99049.72;4977430;28;20068;-66
2023/05/31 12:32:32;;;;;;;;;;;;;;;21.86;37.74;99040.84;5012200;28;20481;-66
2023/05/31 12:35:08;;;;;;;6.35;2.75;;;;;;;21.78;38.42;99051.22;5010303;28;19980;-66
2023/05/31 12:37:35;;;;;;;3.25;2.00;;;;;;;21.50;38.38;99043.94;5019011;28;20045;-66
2023/05/31 12:40:22;;;;;;;6.88;2.35;;;;;;;21.66;38.17;99051.28;5019765;28;20048;-66
2023/05/31 12:42:48;;;;;;;5.40;2.10;;;;;;;21.19;38.00;99064.16;5035849;28;20052;-66
2023/05/31 12:45:18;;;;;;;3.78;2.60;;;;;;;21.54;38.86;99039.72;5020274;28;20049;-66
2023/05/31 12:47:44;;;;;;;6.35;2.78;;;;;;;21.39;39.04;99051.06;5020257;28;20443;-66
2023/05/31 12:50:10;;;;;;;6.05;3.40;;;;;;;21.57;38.88;99052.75;5036626;28;20431;-66